WIDD/BTH METAR and TAF weather

Enter ICAO airport designator
Station Type Date Time Source
WIDD METAR 2019/08/26 06:30 UTC NOAA

WIDD 260630Z 14008KT 9999 FEW014 33/23 Q1010 NOSIG


Station Type Date Time Source
WIDD Decoded METAR 2019/08/26 06:30 UTC NOAA

Station name not available
Aug 26, 2019 - 02:30 AM EDT / 2019.08.26 0630 UTC
Wind: from the SE (140 degrees) at 9 MPH (8 KT):0
Visibility: greater than 7 mile(s):0
Sky conditions: mostly clear
Temperature: 91 F (33 C)
Heat index: 99.1 F (37.3 C):1
Dew Point: 73 F (23 C)
Relative Humidity: 55%
Pressure (altimeter): 29.83 in. Hg (1010 hPa)
ob: WIDD 260630Z 14008KT 9999 FEW014 33/23 Q1010 NOSIG
cycle: 6

Station Type Date Time Source
WIDD TAF 2019/08/26 06:00 UTC NOAA

TAF WIDD 260500Z 2606/2706 14008KT 9000 SCT014=

Example: see airport list